Main page
METAR-TAF:

METAR-TAF

Airports :

Donegal Airport

Donegal, Ireland

latitude: 55-02-39N, longitude: 8-20-28W, elevation: 9 m

Current weather observation

The report was made 1 hour and 13 minutes ago, at 20:00 UTC
Wind 15 kt from the West/Northwest
Temperature 6°C
Humidity 70%
Pressure 1016 hPa
Visibility 10 km or more
Few clouds at a height of 3300 ft

METAR: EIDL 172000Z 29015KT 9999 FEW033 06/01 Q1016

Time: 21:13 (21:13 UTC)

Forecast

The report was made 4 hours and 13 minutes ago, at 17:00 UTC
Forecast valid from 17 at 18 UTC to 18 at 03 UTC
Wind 17 kt from the West/Northwest
Visibility 10 km or more
Few clouds at a height of 2500 ft
Scattered clouds at a height of 4000 ft
Temporary
from 17 at 18 UTC to 17 at 24 UTC
Wind 18 kt from the West/Northwest with gusts up to 28 kt
Scattered clouds at a height of 2000 ft, Cumulonimbus.
light rain showers

TAF: EIDL 171700Z 1718/1803 30017KT 9999 FEW025 SCT040 TEMPO 1718/1724 30018G28KT -SHRA SCT020CB

Weather observations and forecasts of more than 4000 airports (METAR and TAF reports).

The available stations are represented by yellow and red dots on the map.

Hover mouse over dot to see the name of the station.

Then click to see weather observations and forecasts.

To change the map : click on the green buttons with a black cross to zoom in, on the green button with a dash to zoom out, or on the green arrows for adjacent maps.


METAR-TAF: